sensor_id;sensor_type;location;lat;lon;timestamp;pressure;altitude;pressure_sealevel;temperature;humidity
73398;BME280;63606;52.328;20.964;2022-09-29T00:01:23;99227.56;;;7.81;96.47
73398;BME280;63606;52.328;20.964;2022-09-29T00:03:49;99228.25;;;7.93;96.26
73398;BME280;63606;52.328;20.964;2022-09-29T00:06:16;99223.38;;;7.90;96.08
73398;BME280;63606;52.328;20.964;2022-09-29T00:08:43;99227.66;;;7.91;96.49
73398;BME280;63606;52.328;20.964;2022-09-29T00:11:11;99218.63;;;7.97;96.24
73398;BME280;63606;52.328;20.964;2022-09-29T00:13:37;99216.03;;;8.02;96.41
73398;BME280;63606;52.328;20.964;2022-09-29T00:16:03;99234.19;;;8.00;96.16
73398;BME280;63606;52.328;20.964;2022-09-29T00:18:29;99224.81;;;7.97;96.56
73398;BME280;63606;52.328;20.964;2022-09-29T00:20:57;99229.91;;;7.99;96.17
73398;BME280;63606;52.328;20.964;2022-09-29T00:23:23;99224.28;;;8.00;96.35
73398;BME280;63606;52.328;20.964;2022-09-29T00:26:05;99229.97;;;8.04;95.73
73398;BME280;63606;52.328;20.964;2022-09-29T00:28:32;99227.81;;;8.01;96.51
73398;BME280;63606;52.328;20.964;2022-09-29T00:30:59;99227.81;;;8.01;96.62
73398;BME280;63606;52.328;20.964;2022-09-29T00:33:28;99226.22;;;8.05;96.08
73398;BME280;63606;52.328;20.964;2022-09-29T00:36:05;99223.81;;;8.03;96.40
73398;BME280;63606;52.328;20.964;2022-09-29T00:38:34;99227.03;;;8.06;95.87
73398;BME280;63606;52.328;20.964;2022-09-29T00:40:59;99229.44;;;8.07;96.09
73398;BME280;63606;52.328;20.964;2022-09-29T00:44:00;99229.78;;;8.11;95.83
73398;BME280;63606;52.328;20.964;2022-09-29T00:47:00;99226.25;;;8.10;96.17
73398;BME280;63606;52.328;20.964;2022-09-29T00:49:47;99225.22;;;8.11;95.53
73398;BME280;63606;52.328;20.964;2022-09-29T00:52:36;99233.75;;;8.08;95.74
73398;BME280;63606;52.328;20.964;2022-09-29T00:55:06;99241.78;;;8.08;96.20
73398;BME280;63606;52.328;20.964;2022-09-29T00:57:47;99235.31;;;8.04;96.01
73398;BME280;63606;52.328;20.964;2022-09-29T01:00:15;99238.53;;;8.06;96.00
73398;BME280;63606;52.328;20.964;2022-09-29T01:02:58;99242.28;;;8.05;95.29
73398;BME280;63606;52.328;20.964;2022-09-29T01:05:46;99251.81;;;7.96;95.58
73398;BME280;63606;52.328;20.964;2022-09-29T01:11:10;99251.03;;;7.95;95.45
73398;BME280;63606;52.328;20.964;2022-09-29T01:13:37;99246.66;;;7.89;95.94
73398;BME280;63606;52.328;20.964;2022-09-29T01:16:03;99245.81;;;7.84;95.54
73398;BME280;63606;52.328;20.964;2022-09-29T01:18:29;99240.94;;;7.81;95.52
73398;BME280;63606;52.328;20.964;2022-09-29T01:21:23;99245.81;;;7.84;95.34
73398;BME280;63606;52.328;20.964;2022-09-29T01:29:29;99253.94;;;7.72;95.42
73398;BME280;63606;52.328;20.964;2022-09-29T01:40:40;99265.13;;;7.64;95.37
73398;BME280;63606;52.328;20.964;2022-09-29T01:46:09;99260.00;;;7.62;95.73
73398;BME280;63606;52.328;20.964;2022-09-29T01:48:45;99268.78;;;7.58;96.08
73398;BME280;63606;52.328;20.964;2022-09-29T01:51:16;99275.13;;;7.52;96.07
73398;BME280;63606;52.328;20.964;2022-09-29T01:53:47;99268.16;;;7.51;95.98
73398;BME280;63606;52.328;20.964;2022-09-29T01:56:20;99275.06;;;7.46;95.92
73398;BME280;63606;52.328;20.964;2022-09-29T01:58:55;99268.91;;;7.46;95.94
73398;BME280;63606;52.328;20.964;2022-09-29T02:01:29;99278.84;;;7.51;95.73
73398;BME280;63606;52.328;20.964;2022-09-29T02:04:01;99276.44;;;7.49;96.02
73398;BME280;63606;52.328;20.964;2022-09-29T02:06:36;99273.19;;;7.47;96.62
73398;BME280;63606;52.328;20.964;2022-09-29T02:09:11;99270.78;;;7.45;96.31
73398;BME280;63606;52.328;20.964;2022-09-29T02:11:40;99272.94;;;7.49;95.84
73398;BME280;63606;52.328;20.964;2022-09-29T02:14:14;99279.84;;;7.44;96.40
73398;BME280;63606;52.328;20.964;2022-09-29T02:17:05;99278.97;;;7.39;96.16
73398;BME280;63606;52.328;20.964;2022-09-29T02:19:36;99285.88;;;7.35;95.93
73398;BME280;63606;52.328;20.964;2022-09-29T02:22:03;99284.25;;;7.34;96.14
73398;BME280;63606;52.328;20.964;2022-09-29T02:24:29;99291.16;;;7.30;95.63
73398;BME280;63606;52.328;20.964;2022-09-29T02:26:55;99289.78;;;7.27;95.94
73398;BME280;63606;52.328;20.964;2022-09-29T02:29:21;99304.50;;;7.30;96.02
73398;BME280;63606;52.328;20.964;2022-09-29T02:31:47;99309.22;;;7.23;95.93
73398;BME280;63606;52.328;20.964;2022-09-29T02:34:15;99301.13;;;7.17;95.70
73398;BME280;63606;52.328;20.964;2022-09-29T02:50:25;99319.59;;;7.36;95.98
73398;BME280;63606;52.328;20.964;2022-09-29T02:53:12;99311.97;;;7.44;96.71
73398;BME280;63606;52.328;20.964;2022-09-29T03:01:11;99329.88;;;7.44;96.21
73398;BME280;63606;52.328;20.964;2022-09-29T03:03:39;99334.16;;;7.45;96.25
73398;BME280;63606;52.328;20.964;2022-09-29T03:06:05;99327.19;;;7.44;96.14
73398;BME280;63606;52.328;20.964;2022-09-29T03:08:30;99321.66;;;7.51;95.42
73398;BME280;63606;52.328;20.964;2022-09-29T03:10:57;99327.19;;;7.44;95.61
73398;BME280;63606;52.328;20.964;2022-09-29T03:13:23;99318.41;;;7.49;95.49
73398;BME280;63606;52.328;20.964;2022-09-29T03:15:49;99326.06;;;7.40;95.35
73398;BME280;63606;52.328;20.964;2022-09-29T03:18:15;99329.78;;;7.39;95.29
73398;BME280;63606;52.328;20.964;2022-09-29T03:20:40;99330.28;;;7.36;95.16
73398;BME280;63606;52.328;20.964;2022-09-29T03:23:06;99339.38;;;7.35;94.79
73398;BME280;63606;52.328;20.964;2022-09-29T03:25:31;99339.28;;;7.30;94.61
73398;BME280;63606;52.328;20.964;2022-09-29T03:27:57;99353.16;;;7.27;95.48
73398;BME280;63606;52.328;20.964;2022-09-29T03:30:22;99360.13;;;7.28;95.59
73398;BME280;63606;52.328;20.964;2022-09-29T03:32:48;99361.06;;;7.22;95.56
73398;BME280;63606;52.328;20.964;2022-09-29T03:35:13;99351.84;;;7.12;94.36
73398;BME280;63606;52.328;20.964;2022-09-29T03:37:39;99350.22;;;7.11;94.53
73398;BME280;63606;52.328;20.964;2022-09-29T03:40:05;99348.63;;;7.10;94.83
73398;BME280;63606;52.328;20.964;2022-09-29T03:42:31;99347.31;;;7.13;94.47
73398;BME280;63606;52.328;20.964;2022-09-29T03:44:57;99349.25;;;7.17;94.71
73398;BME280;63606;52.328;20.964;2022-09-29T03:47:22;99350.38;;;7.22;94.68
73398;BME280;63606;52.328;20.964;2022-09-29T03:49:48;99358.50;;;7.27;94.52
73398;BME280;63606;52.328;20.964;2022-09-29T03:52:13;99349.91;;;7.25;94.13
73398;BME280;63606;52.328;20.964;2022-09-29T03:54:39;99349.31;;;7.23;95.12
73398;BME280;63606;52.328;20.964;2022-09-29T03:57:05;99353.00;;;7.16;94.70
73398;BME280;63606;52.328;20.964;2022-09-29T03:59:30;99357.03;;;7.19;94.61
73398;BME280;63606;52.328;20.964;2022-09-29T04:01:56;99357.53;;;7.16;94.67
73398;BME280;63606;52.328;20.964;2022-09-29T04:04:21;99355.25;;;7.08;94.23
73398;BME280;63606;52.328;20.964;2022-09-29T04:06:47;99365.41;;;7.06;94.48
73398;BME280;63606;52.328;20.964;2022-09-29T04:09:13;99353.31;;;7.03;95.03
73398;BME280;63606;52.328;20.964;2022-09-29T04:11:38;99350.16;;;7.06;94.93
73398;BME280;63606;52.328;20.964;2022-09-29T04:14:04;99356.56;;;7.05;94.39
73398;BME280;63606;52.328;20.964;2022-09-29T04:16:29;99358.75;;;7.08;95.38
73398;BME280;63606;52.328;20.964;2022-09-29T04:18:55;99356.06;;;7.08;94.12
73398;BME280;63606;52.328;20.964;2022-09-29T04:21:21;99358.19;;;7.06;94.80
73398;BME280;63606;52.328;20.964;2022-09-29T04:23:46;99359.13;;;7.00;94.52
73398;BME280;63606;52.328;20.964;2022-09-29T04:26:12;99369.84;;;7.00;94.81
73398;BME280;63606;52.328;20.964;2022-09-29T04:28:38;99373.06;;;7.02;94.47
73398;BME280;63606;52.328;20.964;2022-09-29T04:31:04;99373.06;;;7.02;95.05
73398;BME280;63606;52.328;20.964;2022-09-29T04:33:31;99365.16;;;7.07;95.07
73398;BME280;63606;52.328;20.964;2022-09-29T04:35:57;99373.72;;;7.09;94.87
73398;BME280;63606;52.328;20.964;2022-09-29T04:38:23;99371.63;;;7.11;94.20
73398;BME280;63606;52.328;20.964;2022-09-29T04:40:49;99367.88;;;7.12;94.57
73398;BME280;63606;52.328;20.964;2022-09-29T04:43:14;99374.63;;;7.15;94.46
73398;BME280;63606;52.328;20.964;2022-09-29T04:45:40;99378.75;;;7.23;94.49
73398;BME280;63606;52.328;20.964;2022-09-29T04:48:06;99376.31;;;7.21;94.77
73398;BME280;63606;52.328;20.964;2022-09-29T04:50:32;99380.94;;;7.26;94.47
73398;BME280;63606;52.328;20.964;2022-09-29T04:52:58;99380.34;;;7.24;94.26
73398;BME280;63606;52.328;20.964;2022-09-29T04:55:24;99384.34;;;7.21;95.06
73398;BME280;63606;52.328;20.964;2022-09-29T04:57:49;99385.81;;;7.29;94.02
73398;BME280;63606;52.328;20.964;2022-09-29T05:00:15;99386.03;;;7.27;94.37
73398;BME280;63606;52.328;20.964;2022-09-29T05:02:41;99391.16;;;7.29;94.67
73398;BME280;63606;52.328;20.964;2022-09-29T05:05:07;99384.59;;;7.36;94.49
73398;BME280;63606;52.328;20.964;2022-09-29T05:07:35;99387.31;;;7.41;94.04
73398;BME280;63606;52.328;20.964;2022-09-29T05:10:01;99387.00;;;7.38;93.85
73398;BME280;63606;52.328;20.964;2022-09-29T05:12:26;99384.91;;;7.40;94.10
73398;BME280;63606;52.328;20.964;2022-09-29T05:14:52;99393.31;;;7.32;93.84
73398;BME280;63606;52.328;20.964;2022-09-29T05:17:18;99393.31;;;7.32;94.75
73398;BME280;63606;52.328;20.964;2022-09-29T05:19:43;99400.28;;;7.33;94.53
73398;BME280;63606;52.328;20.964;2022-09-29T05:22:09;99405.56;;;7.28;95.21
73398;BME280;63606;52.328;20.964;2022-09-29T05:24:34;99402.66;;;7.29;95.00
73398;BME280;63606;52.328;20.964;2022-09-29T05:27:00;99406.69;;;7.32;94.98
73398;BME280;63606;52.328;20.964;2022-09-29T05:29:25;99411.97;;;7.27;94.58
73398;BME280;63606;52.328;20.964;2022-09-29T05:31:51;99414.91;;;7.25;94.71
73398;BME280;63606;52.328;20.964;2022-09-29T05:34:17;99414.56;;;7.22;95.55
73398;BME280;63606;52.328;20.964;2022-09-29T05:36:42;99422.69;;;7.27;95.27
73398;BME280;63606;52.328;20.964;2022-09-29T05:39:09;99430.94;;;7.25;94.97
73398;BME280;63606;52.328;20.964;2022-09-29T05:41:34;99435.69;;;7.23;95.03
73398;BME280;63606;52.328;20.964;2022-09-29T05:44:00;99438.22;;;7.30;94.45
73398;BME280;63606;52.328;20.964;2022-09-29T05:46:26;99433.94;;;7.29;95.00
73398;BME280;63606;52.328;20.964;2022-09-29T05:48:52;99434.84;;;7.34;95.01
73398;BME280;63606;52.328;20.964;2022-09-29T05:51:21;99443.75;;;7.40;94.48
73398;BME280;63606;52.328;20.964;2022-09-29T05:53:48;99441.47;;;7.32;94.98
73398;BME280;63606;52.328;20.964;2022-09-29T05:56:17;99448.28;;;7.39;95.62
73398;BME280;63606;52.328;20.964;2022-09-29T05:58:45;99446.97;;;7.42;94.97
73398;BME280;63606;52.328;20.964;2022-09-29T06:01:19;99447.63;;;7.49;94.70
73398;BME280;63606;52.328;20.964;2022-09-29T06:03:45;99448.19;;;7.51;94.66
73398;BME280;63606;52.328;20.964;2022-09-29T06:06:16;99465.38;;;7.55;94.66
73398;BME280;63606;52.328;20.964;2022-09-29T06:08:43;99462.97;;;7.54;94.49
73398;BME280;63606;52.328;20.964;2022-09-29T06:11:12;99467.56;;;7.58;94.08
73398;BME280;63606;52.328;20.964;2022-09-29T06:13:45;99463.69;;;7.66;94.11
73398;BME280;63606;52.328;20.964;2022-09-29T06:16:12;99463.84;;;7.59;94.10
73398;BME280;63606;52.328;20.964;2022-09-29T06:18:38;99467.88;;;7.62;94.36
73398;BME280;63606;52.328;20.964;2022-09-29T06:21:10;99459.78;;;7.57;94.89
73398;BME280;63606;52.328;20.964;2022-09-29T06:23:36;99452.16;;;7.65;94.08
73398;BME280;63606;52.328;20.964;2022-09-29T06:26:05;99458.63;;;7.69;94.18
73398;BME280;63606;52.328;20.964;2022-09-29T06:28:31;99471.59;;;7.78;94.95
73398;BME280;63606;52.328;20.964;2022-09-29T06:31:20;99470.50;;;7.73;93.72
73398;BME280;63606;52.328;20.964;2022-09-29T06:33:44;99482.31;;;7.78;94.34
73398;BME280;63606;52.328;20.964;2022-09-29T06:39:29;99478.13;;;7.82;94.50
73398;BME280;63606;52.328;20.964;2022-09-29T06:41:55;99484.91;;;7.89;94.01
73398;BME280;63606;52.328;20.964;2022-09-29T06:44:22;99479.88;;;7.93;94.31
73398;BME280;63606;52.328;20.964;2022-09-29T06:46:49;99478.06;;;7.98;94.16
73398;BME280;63606;52.328;20.964;2022-09-29T06:49:16;99480.03;;;8.03;93.97
73398;BME280;63606;52.328;20.964;2022-09-29T06:51:41;99480.34;;;8.07;93.59
73398;BME280;63606;52.328;20.964;2022-09-29T06:54:12;99489.25;;;8.12;93.39
73398;BME280;63606;52.328;20.964;2022-09-29T06:56:38;99494.41;;;8.19;93.69
73398;BME280;63606;52.328;20.964;2022-09-29T06:59:04;99497.91;;;8.19;92.40
73398;BME280;63606;52.328;20.964;2022-09-29T07:01:29;99508.16;;;8.22;91.96
73398;BME280;63606;52.328;20.964;2022-09-29T07:03:55;99513.09;;;8.14;91.90
73398;BME280;63606;52.328;20.964;2022-09-29T07:06:21;99511.28;;;8.19;92.83
73398;BME280;63606;52.328;20.964;2022-09-29T07:08:46;99510.81;;;8.22;92.97
73398;BME280;63606;52.328;20.964;2022-09-29T07:11:12;99516.19;;;8.22;93.07
73398;BME280;63606;52.328;20.964;2022-09-29T07:13:38;99512.09;;;8.20;92.36
73398;BME280;63606;52.328;20.964;2022-09-29T07:16:08;99514.06;;;8.24;92.76
73398;BME280;63606;52.328;20.964;2022-09-29T07:18:34;99517.78;;;8.23;92.90
73398;BME280;63606;52.328;20.964;2022-09-29T07:21:12;99515.69;;;8.25;92.90
73398;BME280;63606;52.328;20.964;2022-09-29T07:23:43;99519.97;;;8.26;91.20
73398;BME280;63606;52.328;20.964;2022-09-29T07:26:08;99528.50;;;8.23;91.73
73398;BME280;63606;52.328;20.964;2022-09-29T07:28:34;99531.03;;;8.30;92.53
73398;BME280;63606;52.328;20.964;2022-09-29T07:31:03;99532.84;;;8.29;91.89
73398;BME280;63606;52.328;20.964;2022-09-29T07:33:30;99528.56;;;8.28;91.41
73398;BME280;63606;52.328;20.964;2022-09-29T07:35:55;99532.38;;;8.49;92.25
73398;BME280;63606;52.328;20.964;2022-09-29T07:38:23;99540.25;;;8.39;91.15
73398;BME280;63606;52.328;20.964;2022-09-29T07:40:49;99533.78;;;8.57;92.19
73398;BME280;63606;52.328;20.964;2022-09-29T07:43:14;99541.41;;;8.65;92.11
73398;BME280;63606;52.328;20.964;2022-09-29T07:45:48;99547.41;;;8.72;90.32
73398;BME280;63606;52.328;20.964;2022-09-29T07:48:14;99559.06;;;8.83;89.85
73398;BME280;63606;52.328;20.964;2022-09-29T07:50:40;99560.50;;;8.91;91.02
73398;BME280;63606;52.328;20.964;2022-09-29T07:53:06;99554.63;;;8.94;87.51
73398;BME280;63606;52.328;20.964;2022-09-29T07:55:31;99558.66;;;8.96;87.36
73398;BME280;63606;52.328;20.964;2022-09-29T07:57:57;99565.84;;;8.91;87.45
73398;BME280;63606;52.328;20.964;2022-09-29T08:00:22;99566.34;;;8.87;87.73
73398;BME280;63606;52.328;20.964;2022-09-29T08:02:48;99573.66;;;8.92;89.70
73398;BME280;63606;52.328;20.964;2022-09-29T08:05:14;99576.25;;;8.87;87.85
73398;BME280;63606;52.328;20.964;2022-09-29T08:07:39;99573.03;;;8.85;89.02
73398;BME280;63606;52.328;20.964;2022-09-29T08:10:05;99583.31;;;8.93;88.25
73398;BME280;63606;52.328;20.964;2022-09-29T08:12:31;99580.44;;;9.00;88.11
73398;BME280;63606;52.328;20.964;2022-09-29T08:14:56;99580.63;;;8.93;86.38
73398;BME280;63606;52.328;20.964;2022-09-29T08:17:23;99579.75;;;8.87;85.96
73398;BME280;63606;52.328;20.964;2022-09-29T08:19:49;99588.28;;;8.84;86.62
73398;BME280;63606;52.328;20.964;2022-09-29T08:22:14;99589.88;;;8.80;89.28
73398;BME280;63606;52.328;20.964;2022-09-29T08:24:40;99590.69;;;8.81;88.58
73398;BME280;63606;52.328;20.964;2022-09-29T08:27:07;99602.25;;;8.86;88.88
73398;BME280;63606;52.328;20.964;2022-09-29T08:29:33;99603.41;;;8.91;89.58
73398;BME280;63606;52.328;20.964;2022-09-29T08:31:58;99604.34;;;9.01;88.82
73398;BME280;63606;52.328;20.964;2022-09-29T08:34:24;99600.75;;;8.96;87.07
73398;BME280;63606;52.328;20.964;2022-09-29T08:36:49;99606.63;;;8.93;88.72
73398;BME280;63606;52.328;20.964;2022-09-29T08:39:16;99607.44;;;8.93;86.84
73398;BME280;63606;52.328;20.964;2022-09-29T08:44:42;99609.56;;;9.13;89.66
73398;BME280;63606;52.328;20.964;2022-09-29T08:47:19;99600.09;;;9.27;88.75
73398;BME280;63606;52.328;20.964;2022-09-29T08:49:54;99603.06;;;9.31;88.37
73398;BME280;63606;52.328;20.964;2022-09-29T08:52:27;99620.63;;;9.43;85.71
73398;BME280;63606;52.328;20.964;2022-09-29T08:55:06;99614.53;;;9.48;84.78
73398;BME280;63606;52.328;20.964;2022-09-29T08:57:37;99622.88;;;9.52;87.02
73398;BME280;63606;52.328;20.964;2022-09-29T09:00:06;99624.00;;;9.56;86.40
73398;BME280;63606;52.328;20.964;2022-09-29T09:05:30;99626.78;;;9.66;87.91
73398;BME280;63606;52.328;20.964;2022-09-29T09:10:55;99617.06;;;9.60;84.32
73398;BME280;63606;52.328;20.964;2022-09-29T09:22:06;99632.25;;;9.76;86.09
73398;BME280;63606;52.328;20.964;2022-09-29T09:24:43;99636.50;;;9.72;83.14
73398;BME280;63606;52.328;20.964;2022-09-29T09:27:16;99644.19;;;9.63;83.43
73398;BME280;63606;52.328;20.964;2022-09-29T09:29:48;99644.41;;;9.57;85.07
73398;BME280;63606;52.328;20.964;2022-09-29T09:32:20;99647.94;;;9.62;85.31
73398;BME280;63606;52.328;20.964;2022-09-29T09:34:54;99646.31;;;9.61;86.94
73398;BME280;63606;52.328;20.964;2022-09-29T09:37:24;99645.00;;;9.64;83.67
73398;BME280;63606;52.328;20.964;2022-09-29T09:42:34;99653.63;;;9.66;85.06
73398;BME280;63606;52.328;20.964;2022-09-29T09:45:05;99646.63;;;9.65;84.61
73398;BME280;63606;52.328;20.964;2022-09-29T09:47:41;99650.63;;;9.62;85.92
73398;BME280;63606;52.328;20.964;2022-09-29T09:50:16;99655.25;;;9.67;84.55
73398;BME280;63606;52.328;20.964;2022-09-29T09:52:52;99654.22;;;9.73;86.55
73398;BME280;63606;52.328;20.964;2022-09-29T09:55:20;99664.47;;;9.76;84.25
73398;BME280;63606;52.328;20.964;2022-09-29T09:58:07;99665.03;;;9.78;84.93
73398;BME280;63606;52.328;20.964;2022-09-29T10:00:50;99674.06;;;9.67;83.28
73398;BME280;63606;52.328;20.964;2022-09-29T10:03:17;99683.16;;;9.66;83.50
73398;BME280;63606;52.328;20.964;2022-09-29T10:05:45;99678.25;;;9.58;84.21
73398;BME280;63606;52.328;20.964;2022-09-29T10:08:24;99686.28;;;9.58;85.04
73398;BME280;63606;52.328;20.964;2022-09-29T10:10:51;99691.44;;;9.64;84.24
73398;BME280;63606;52.328;20.964;2022-09-29T10:13:17;99687.41;;;9.62;84.52
73398;BME280;63606;52.328;20.964;2022-09-29T10:16:16;99692.22;;;9.60;85.65
73398;BME280;63606;52.328;20.964;2022-09-29T10:18:50;99694.34;;;9.58;83.20
73398;BME280;63606;52.328;20.964;2022-09-29T10:21:35;99696.47;;;9.56;81.54
73398;BME280;63606;52.328;20.964;2022-09-29T10:24:01;99697.59;;;9.60;82.31
73398;BME280;63606;52.328;20.964;2022-09-29T10:26:38;99701.34;;;9.59;84.12
73398;BME280;63606;52.328;20.964;2022-09-29T10:29:22;99705.47;;;9.66;83.01
73398;BME280;63606;52.328;20.964;2022-09-29T10:34:34;99713.25;;;9.68;80.91
73398;BME280;63606;52.328;20.964;2022-09-29T10:37:05;99728.31;;;9.69;80.25
73398;BME280;63606;52.328;20.964;2022-09-29T10:39:46;99724.63;;;9.75;80.08
73398;BME280;63606;52.328;20.964;2022-09-29T10:42:28;99717.66;;;9.79;81.70
73398;BME280;63606;52.328;20.964;2022-09-29T10:47:36;99724.16;;;9.83;80.23
73398;BME280;63606;52.328;20.964;2022-09-29T10:50:20;99719.09;;;9.87;79.59
73398;BME280;63606;52.328;20.964;2022-09-29T10:55:20;99727.44;;;9.90;80.51
73398;BME280;63606;52.328;20.964;2022-09-29T10:57:47;99721.25;;;9.85;79.45
73398;BME280;63606;52.328;20.964;2022-09-29T11:00:34;99727.75;;;9.94;80.55
73398;BME280;63606;52.328;20.964;2022-09-29T11:03:13;99731.06;;;10.01;80.72
73398;BME280;63606;52.328;20.964;2022-09-29T11:06:02;99726.72;;;10.22;80.29
73398;BME280;63606;52.328;20.964;2022-09-29T11:08:29;99735.94;;;10.31;80.82
73398;BME280;63606;52.328;20.964;2022-09-29T11:11:29;99738.63;;;10.31;79.59
73398;BME280;63606;52.328;20.964;2022-09-29T11:13:55;99742.94;;;10.32;80.87
73398;BME280;63606;52.328;20.964;2022-09-29T11:16:34;99740.72;;;10.24;78.47
73398;BME280;63606;52.328;20.964;2022-09-29T11:19:09;99747.22;;;10.28;80.58
73398;BME280;63606;52.328;20.964;2022-09-29T11:35:53;99737.91;;;10.73;76.43
73398;BME280;63606;52.328;20.964;2022-09-29T11:41:03;99743.78;;;10.70;76.12
73398;BME280;63606;52.328;20.964;2022-09-29T12:00:10;99745.78;;;11.27;73.46
73398;BME280;63606;52.328;20.964;2022-09-29T12:11:37;99736.84;;;11.73;73.53
73398;BME280;63606;52.328;20.964;2022-09-29T12:14:15;99743.81;;;11.59;72.88
73398;BME280;63606;52.328;20.964;2022-09-29T12:16:57;99748.44;;;11.74;71.51
73398;BME280;63606;52.328;20.964;2022-09-29T12:19:31;99748.81;;;11.98;70.99
73398;BME280;63606;52.328;20.964;2022-09-29T12:22:00;99745.09;;;12.35;69.83
73398;BME280;63606;52.328;20.964;2022-09-29T12:24:37;99746.19;;;12.95;67.75
73398;BME280;63606;52.328;20.964;2022-09-29T12:30:13;99751.53;;;13.20;66.95
73398;BME280;63606;52.328;20.964;2022-09-29T12:32:57;99759.09;;;13.18;68.95
73398;BME280;63606;52.328;20.964;2022-09-29T12:35:28;99770.16;;;13.22;66.15
73398;BME280;63606;52.328;20.964;2022-09-29T12:40:37;99774.25;;;12.94;67.60
73398;BME280;63606;52.328;20.964;2022-09-29T12:45:54;99777.47;;;13.26;69.02
73398;BME280;63606;52.328;20.964;2022-09-29T12:48:33;99782.25;;;13.55;69.09
73398;BME280;63606;52.328;20.964;2022-09-29T12:51:12;99777.19;;;13.97;68.18
73398;BME280;63606;52.328;20.964;2022-09-29T12:56:53;99773.72;;;15.09;60.17
73398;BME280;63606;52.328;20.964;2022-09-29T13:17:05;99777.38;;;14.16;60.38
73398;BME280;63606;52.328;20.964;2022-09-29T13:28:19;99777.00;;;15.35;59.05
73398;BME280;63606;52.328;20.964;2022-09-29T13:30:46;99782.41;;;15.59;59.60
73398;BME280;63606;52.328;20.964;2022-09-29T13:33:24;99782.25;;;15.22;58.35
73398;BME280;63606;52.328;20.964;2022-09-29T13:35:50;99788.84;;;15.15;58.42
73398;BME280;63606;52.328;20.964;2022-09-29T13:38:23;99790.66;;;14.96;60.50
73398;BME280;63606;52.328;20.964;2022-09-29T13:41:12;99790.88;;;14.66;60.46
73398;BME280;63606;52.328;20.964;2022-09-29T14:02:43;99815.13;;;13.77;65.38
73398;BME280;63606;52.328;20.964;2022-09-29T14:08:21;99832.28;;;13.42;63.09
73398;BME280;63606;52.328;20.964;2022-09-29T14:11:03;99837.94;;;13.45;64.61
73398;BME280;63606;52.328;20.964;2022-09-29T14:13:38;99830.34;;;13.48;63.97
73398;BME280;63606;52.328;20.964;2022-09-29T14:18:47;99837.94;;;13.45;63.00
73398;BME280;63606;52.328;20.964;2022-09-29T14:29:41;99839.31;;;13.23;61.20
73398;BME280;63606;52.328;20.964;2022-09-29T14:32:19;99835.78;;;13.17;63.42
73398;BME280;63606;52.328;20.964;2022-09-29T14:34:49;99837.41;;;12.98;64.59
73398;BME280;63606;52.328;20.964;2022-09-29T14:37:20;99832.81;;;12.78;64.93
73398;BME280;63606;52.328;20.964;2022-09-29T14:39:46;99840.06;;;12.82;63.50
73398;BME280;63606;52.328;20.964;2022-09-29T14:42:32;99842.53;;;12.94;64.75
73398;BME280;63606;52.328;20.964;2022-09-29T14:45:00;99843.63;;;13.29;65.85
73398;BME280;63606;52.328;20.964;2022-09-29T14:48:00;99846.06;;;13.25;61.65
73398;BME280;63606;52.328;20.964;2022-09-29T14:50:58;99842.00;;;12.97;62.99
73398;BME280;63606;52.328;20.964;2022-09-29T14:53:55;99861.94;;;12.81;64.32
73398;BME280;63606;52.328;20.964;2022-09-29T15:04:44;99857.00;;;12.27;66.48
73398;BME280;63606;52.328;20.964;2022-09-29T15:07:12;99861.53;;;12.21;66.48
73398;BME280;63606;52.328;20.964;2022-09-29T15:09:38;99856.13;;;12.11;68.82
73398;BME280;63606;52.328;20.964;2022-09-29T15:12:20;99857.16;;;12.05;70.84
73398;BME280;63606;52.328;20.964;2022-09-29T15:14:45;99872.78;;;11.98;68.45
73398;BME280;63606;52.328;20.964;2022-09-29T15:25:22;99867.47;;;11.71;72.96
73398;BME280;63606;52.328;20.964;2022-09-29T15:27:53;99870.13;;;11.66;73.12
73398;BME280;63606;52.328;20.964;2022-09-29T15:30:21;99871.19;;;11.60;73.47
73398;BME280;63606;52.328;20.964;2022-09-29T15:32:48;99871.41;;;11.53;73.35
73398;BME280;63606;52.328;20.964;2022-09-29T15:35:19;99875.72;;;11.49;73.00
73398;BME280;63606;52.328;20.964;2022-09-29T15:40:18;99887.69;;;11.31;74.89
73398;BME280;63606;52.328;20.964;2022-09-29T15:42:45;99886.28;;;11.24;75.71
73398;BME280;63606;52.328;20.964;2022-09-29T15:45:23;99895.38;;;11.17;76.65
73398;BME280;63606;52.328;20.964;2022-09-29T15:48:03;99896.41;;;11.11;76.15
73398;BME280;63606;52.328;20.964;2022-09-29T15:50:31;99899.06;;;11.06;75.88
73398;BME280;63606;52.328;20.964;2022-09-29T15:52:58;99907.91;;;11.02;76.72
73398;BME280;63606;52.328;20.964;2022-09-29T15:55:29;99906.47;;;10.94;77.43
73398;BME280;63606;52.328;20.964;2022-09-29T15:57:55;99906.69;;;10.87;76.78
73398;BME280;63606;52.328;20.964;2022-09-29T16:06:00;99908.91;;;10.69;77.71
73398;BME280;63606;52.328;20.964;2022-09-29T16:08:27;99911.56;;;10.64;76.46
73398;BME280;63606;52.328;20.964;2022-09-29T16:10:56;99906.38;;;10.57;77.20
73398;BME280;63606;52.328;20.964;2022-09-29T16:13:26;99915.22;;;10.52;76.29
73398;BME280;63606;52.328;20.964;2022-09-29T16:15:59;99912.97;;;10.44;77.32
73398;BME280;63606;52.328;20.964;2022-09-29T16:18:29;99916.63;;;10.38;78.23
73398;BME280;63606;52.328;20.964;2022-09-29T16:20:57;99917.41;;;10.34;78.21
73398;BME280;63606;52.328;20.964;2022-09-29T16:23:25;99922.44;;;10.30;77.52
73398;BME280;63606;52.328;20.964;2022-09-29T16:28:34;99934.38;;;10.17;78.10
73398;BME280;63606;52.328;20.964;2022-09-29T16:31:05;99942.34;;;10.12;78.22
73398;BME280;63606;52.328;20.964;2022-09-29T16:33:34;99939.59;;;10.07;78.04
73398;BME280;63606;52.328;20.964;2022-09-29T16:36:11;99950.22;;;9.97;76.66
73398;BME280;63606;52.328;20.964;2022-09-29T16:38:39;99946.31;;;9.88;76.80
73398;BME280;63606;52.328;20.964;2022-09-29T16:43:37;99961.22;;;9.62;77.85
73398;BME280;63606;52.328;20.964;2022-09-29T16:46:06;99961.97;;;9.57;78.32
73398;BME280;63606;52.328;20.964;2022-09-29T16:48:40;99955.03;;;9.44;77.26